SHA weather

Shanghai Hongqiao International Airport
Shanghai, Shanghai Municipality, China

Public forecast

Using degrees Celsius for public forecast. Weather courtesy of forecast.io.

Current aviation weather report (METAR) for Shanghai Hongqiao International Airport

Retrieved 2020/03/30 20:00 UTC (23 minutes ago):

ZSSS 302000Z 35002MPS 9999 BKN015 BKN033 11/10 Q1018 BECMG TL2040 BKN011

Aviation forecast (TAF) for Shanghai Hongqiao International Airport

Retrieved 2020/03/30 18:03 UTC (2 hours ago):

TAF ZSSS 301507Z 3018/3118 06004MPS 6000 BKN016 TX15/3106Z TN10/3021Z TEMPO 3106/3112 SHRA BKN008 FEW030CB